sensor_id;sensor_type;location;lat;lon;timestamp;P1;durP1;ratioP1;P2;durP2;ratioP2
42912;SDS011;50720;54.324;18.558;2023-05-10T00:01:04;5.03;;;3.50;;
42912;SDS011;50720;54.324;18.558;2023-05-10T00:03:35;9.77;;;3.60;;
42912;SDS011;50720;54.324;18.558;2023-05-10T00:08:34;8.07;;;3.42;;
42912;SDS011;50720;54.324;18.558;2023-05-10T00:11:03;6.28;;;3.35;;
42912;SDS011;50720;54.324;18.558;2023-05-10T00:13:33;6.00;;;3.15;;
42912;SDS011;50720;54.324;18.558;2023-05-10T00:16:03;8.43;;;3.38;;
42912;SDS011;50720;54.324;18.558;2023-05-10T00:21:04;11.75;;;3.88;;
42912;SDS011;50720;54.324;18.558;2023-05-10T00:23:34;6.63;;;3.67;;
42912;SDS011;50720;54.324;18.558;2023-05-10T00:26:03;12.23;;;3.97;;
42912;SDS011;50720;54.324;18.558;2023-05-10T00:28:33;8.68;;;3.40;;
42912;SDS011;50720;54.324;18.558;2023-05-10T00:31:02;6.20;;;3.55;;
42912;SDS011;50720;54.324;18.558;2023-05-10T00:33:32;5.95;;;3.47;;
42912;SDS011;50720;54.324;18.558;2023-05-10T00:36:03;9.52;;;3.78;;
42912;SDS011;50720;54.324;18.558;2023-05-10T00:38:34;11.77;;;3.78;;
42912;SDS011;50720;54.324;18.558;2023-05-10T00:41:03;7.65;;;3.78;;
42912;SDS011;50720;54.324;18.558;2023-05-10T00:43:33;8.23;;;3.47;;
42912;SDS011;50720;54.324;18.558;2023-05-10T00:46:03;8.73;;;4.13;;
42912;SDS011;50720;54.324;18.558;2023-05-10T00:48:33;8.63;;;3.88;;
42912;SDS011;50720;54.324;18.558;2023-05-10T00:51:04;5.30;;;3.42;;
42912;SDS011;50720;54.324;18.558;2023-05-10T00:53:34;7.38;;;4.18;;
42912;SDS011;50720;54.324;18.558;2023-05-10T00:56:04;10.43;;;3.83;;
42912;SDS011;50720;54.324;18.558;2023-05-10T00:58:33;7.40;;;4.13;;
42912;SDS011;50720;54.324;18.558;2023-05-10T01:01:03;8.48;;;4.00;;
42912;SDS011;50720;54.324;18.558;2023-05-10T01:06:05;6.18;;;3.47;;
42912;SDS011;50720;54.324;18.558;2023-05-10T01:08:35;6.32;;;3.97;;
42912;SDS011;50720;54.324;18.558;2023-05-10T01:11:04;7.88;;;4.10;;
42912;SDS011;50720;54.324;18.558;2023-05-10T01:13:35;10.55;;;4.45;;
42912;SDS011;50720;54.324;18.558;2023-05-10T01:16:07;10.40;;;3.90;;
42912;SDS011;50720;54.324;18.558;2023-05-10T01:18:39;5.55;;;3.95;;
42912;SDS011;50720;54.324;18.558;2023-05-10T01:21:14;6.75;;;3.75;;
42912;SDS011;50720;54.324;18.558;2023-05-10T01:24:08;7.10;;;4.20;;
42912;SDS011;50720;54.324;18.558;2023-05-10T01:30:01;8.77;;;3.72;;
42912;SDS011;50720;54.324;18.558;2023-05-10T01:32:47;7.15;;;3.67;;
42912;SDS011;50720;54.324;18.558;2023-05-10T01:35:26;6.50;;;4.28;;
42912;SDS011;50720;54.324;18.558;2023-05-10T01:38:04;6.32;;;3.88;;
42912;SDS011;50720;54.324;18.558;2023-05-10T01:40:48;5.45;;;3.65;;
42912;SDS011;50720;54.324;18.558;2023-05-10T01:43:24;5.55;;;4.07;;
42912;SDS011;50720;54.324;18.558;2023-05-10T01:46:01;11.65;;;4.30;;
42912;SDS011;50720;54.324;18.558;2023-05-10T01:48:40;8.15;;;4.20;;
42912;SDS011;50720;54.324;18.558;2023-05-10T01:51:14;11.48;;;4.93;;
42912;SDS011;50720;54.324;18.558;2023-05-10T01:53:50;8.43;;;4.13;;
42912;SDS011;50720;54.324;18.558;2023-05-10T01:56:24;8.20;;;4.45;;
42912;SDS011;50720;54.324;18.558;2023-05-10T01:58:56;8.93;;;4.40;;
42912;SDS011;50720;54.324;18.558;2023-05-10T02:01:28;9.25;;;4.30;;
42912;SDS011;50720;54.324;18.558;2023-05-10T02:04:00;9.50;;;4.28;;
42912;SDS011;50720;54.324;18.558;2023-05-10T02:06:31;9.60;;;4.28;;
42912;SDS011;50720;54.324;18.558;2023-05-10T02:11:32;8.57;;;4.32;;
42912;SDS011;50720;54.324;18.558;2023-05-10T02:14:02;10.90;;;4.30;;
42912;SDS011;50720;54.324;18.558;2023-05-10T02:16:34;8.27;;;4.53;;
42912;SDS011;50720;54.324;18.558;2023-05-10T02:19:06;8.02;;;4.75;;
42912;SDS011;50720;54.324;18.558;2023-05-10T02:21:37;8.77;;;4.75;;
42912;SDS011;50720;54.324;18.558;2023-05-10T02:24:08;9.43;;;5.05;;
42912;SDS011;50720;54.324;18.558;2023-05-10T02:29:08;8.63;;;5.10;;
42912;SDS011;50720;54.324;18.558;2023-05-10T02:31:40;9.40;;;4.93;;
42912;SDS011;50720;54.324;18.558;2023-05-10T02:34:12;11.70;;;5.00;;
42912;SDS011;50720;54.324;18.558;2023-05-10T02:36:43;7.07;;;4.13;;
42912;SDS011;50720;54.324;18.558;2023-05-10T02:39:13;10.75;;;6.50;;
42912;SDS011;50720;54.324;18.558;2023-05-10T02:41:45;7.82;;;4.40;;
42912;SDS011;50720;54.324;18.558;2023-05-10T02:46:47;9.38;;;5.90;;
42912;SDS011;50720;54.324;18.558;2023-05-10T02:49:18;11.43;;;5.95;;
42912;SDS011;50720;54.324;18.558;2023-05-10T02:51:50;13.45;;;6.18;;
42912;SDS011;50720;54.324;18.558;2023-05-10T02:54:26;8.00;;;5.28;;
42912;SDS011;50720;54.324;18.558;2023-05-10T02:56:59;12.32;;;6.10;;
42912;SDS011;50720;54.324;18.558;2023-05-10T02:59:32;10.57;;;6.00;;
42912;SDS011;50720;54.324;18.558;2023-05-10T03:02:02;11.00;;;6.22;;
42912;SDS011;50720;54.324;18.558;2023-05-10T03:04:33;14.30;;;7.85;;
42912;SDS011;50720;54.324;18.558;2023-05-10T03:07:03;11.50;;;6.35;;
42912;SDS011;50720;54.324;18.558;2023-05-10T03:09:33;9.50;;;4.65;;
42912;SDS011;50720;54.324;18.558;2023-05-10T03:12:03;10.15;;;4.88;;
42912;SDS011;50720;54.324;18.558;2023-05-10T03:14:44;9.00;;;6.05;;
42912;SDS011;50720;54.324;18.558;2023-05-10T03:17:23;11.07;;;4.68;;
42912;SDS011;50720;54.324;18.558;2023-05-10T03:20:03;9.10;;;5.30;;
42912;SDS011;50720;54.324;18.558;2023-05-10T03:22:37;9.35;;;5.57;;
42912;SDS011;50720;54.324;18.558;2023-05-10T03:25:10;9.32;;;5.32;;
42912;SDS011;50720;54.324;18.558;2023-05-10T03:27:41;9.27;;;4.63;;
42912;SDS011;50720;54.324;18.558;2023-05-10T03:30:12;6.72;;;4.53;;
42912;SDS011;50720;54.324;18.558;2023-05-10T03:32:43;9.73;;;4.88;;
42912;SDS011;50720;54.324;18.558;2023-05-10T03:35:14;10.68;;;5.05;;
42912;SDS011;50720;54.324;18.558;2023-05-10T03:37:45;11.20;;;5.00;;
42912;SDS011;50720;54.324;18.558;2023-05-10T03:40:15;12.63;;;5.90;;
42912;SDS011;50720;54.324;18.558;2023-05-10T03:42:45;8.63;;;4.50;;
42912;SDS011;50720;54.324;18.558;2023-05-10T03:45:14;12.18;;;5.07;;
42912;SDS011;50720;54.324;18.558;2023-05-10T03:47:44;11.40;;;5.70;;
42912;SDS011;50720;54.324;18.558;2023-05-10T03:50:15;17.92;;;7.25;;
42912;SDS011;50720;54.324;18.558;2023-05-10T03:52:46;19.42;;;6.53;;
42912;SDS011;50720;54.324;18.558;2023-05-10T03:55:15;21.05;;;7.25;;
42912;SDS011;50720;54.324;18.558;2023-05-10T03:57:45;15.73;;;6.50;;
42912;SDS011;50720;54.324;18.558;2023-05-10T04:00:16;14.70;;;6.07;;
42912;SDS011;50720;54.324;18.558;2023-05-10T04:02:46;13.10;;;5.28;;
42912;SDS011;50720;54.324;18.558;2023-05-10T04:05:18;11.50;;;6.43;;
42912;SDS011;50720;54.324;18.558;2023-05-10T04:07:48;13.48;;;6.20;;
42912;SDS011;50720;54.324;18.558;2023-05-10T04:10:18;11.68;;;6.78;;
42912;SDS011;50720;54.324;18.558;2023-05-10T04:12:48;14.65;;;6.22;;
42912;SDS011;50720;54.324;18.558;2023-05-10T04:15:17;11.90;;;6.03;;
42912;SDS011;50720;54.324;18.558;2023-05-10T04:17:48;8.40;;;5.00;;
42912;SDS011;50720;54.324;18.558;2023-05-10T04:20:20;15.25;;;5.45;;
42912;SDS011;50720;54.324;18.558;2023-05-10T04:22:50;9.75;;;4.78;;
42912;SDS011;50720;54.324;18.558;2023-05-10T04:25:19;7.38;;;4.78;;
42912;SDS011;50720;54.324;18.558;2023-05-10T04:27:49;10.95;;;5.50;;
42912;SDS011;50720;54.324;18.558;2023-05-10T04:30:20;8.38;;;5.03;;
42912;SDS011;50720;54.324;18.558;2023-05-10T04:32:50;10.88;;;5.50;;
42912;SDS011;50720;54.324;18.558;2023-05-10T04:35:21;8.98;;;5.38;;
42912;SDS011;50720;54.324;18.558;2023-05-10T04:37:51;9.27;;;5.63;;
42912;SDS011;50720;54.324;18.558;2023-05-10T04:40:20;8.23;;;5.40;;
42912;SDS011;50720;54.324;18.558;2023-05-10T04:42:50;8.05;;;4.78;;
42912;SDS011;50720;54.324;18.558;2023-05-10T04:45:19;12.15;;;5.70;;
42912;SDS011;50720;54.324;18.558;2023-05-10T04:47:49;9.20;;;4.72;;
42912;SDS011;50720;54.324;18.558;2023-05-10T04:50:21;9.23;;;5.70;;
42912;SDS011;50720;54.324;18.558;2023-05-10T04:52:50;8.10;;;4.90;;
42912;SDS011;50720;54.324;18.558;2023-05-10T04:55:20;10.75;;;5.43;;
42912;SDS011;50720;54.324;18.558;2023-05-10T04:57:50;7.72;;;4.78;;
42912;SDS011;50720;54.324;18.558;2023-05-10T05:00:19;10.38;;;5.45;;
42912;SDS011;50720;54.324;18.558;2023-05-10T05:02:49;8.25;;;5.30;;
42912;SDS011;50720;54.324;18.558;2023-05-10T05:05:19;9.70;;;5.80;;
42912;SDS011;50720;54.324;18.558;2023-05-10T05:07:50;8.68;;;5.22;;
42912;SDS011;50720;54.324;18.558;2023-05-10T05:10:19;13.45;;;5.80;;
42912;SDS011;50720;54.324;18.558;2023-05-10T05:12:49;9.95;;;5.38;;
42912;SDS011;50720;54.324;18.558;2023-05-10T05:15:18;7.53;;;5.05;;
42912;SDS011;50720;54.324;18.558;2023-05-10T05:17:48;8.57;;;6.45;;
42912;SDS011;50720;54.324;18.558;2023-05-10T05:20:17;11.68;;;5.65;;
42912;SDS011;50720;54.324;18.558;2023-05-10T05:22:49;10.88;;;6.05;;
42912;SDS011;50720;54.324;18.558;2023-05-10T05:25:18;11.82;;;5.47;;
42912;SDS011;50720;54.324;18.558;2023-05-10T05:27:48;10.77;;;5.23;;
42912;SDS011;50720;54.324;18.558;2023-05-10T05:30:18;11.05;;;5.43;;
42912;SDS011;50720;54.324;18.558;2023-05-10T05:32:48;8.48;;;5.13;;
42912;SDS011;50720;54.324;18.558;2023-05-10T05:35:18;16.67;;;5.85;;
42912;SDS011;50720;54.324;18.558;2023-05-10T05:37:49;23.85;;;6.40;;
42912;SDS011;50720;54.324;18.558;2023-05-10T05:42:49;13.57;;;5.70;;
42912;SDS011;50720;54.324;18.558;2023-05-10T05:45:18;12.05;;;5.25;;
42912;SDS011;50720;54.324;18.558;2023-05-10T05:47:48;8.77;;;6.13;;
42912;SDS011;50720;54.324;18.558;2023-05-10T05:50:18;11.57;;;6.03;;
42912;SDS011;50720;54.324;18.558;2023-05-10T05:52:49;14.93;;;5.40;;
42912;SDS011;50720;54.324;18.558;2023-05-10T05:55:18;12.10;;;5.15;;
42912;SDS011;50720;54.324;18.558;2023-05-10T05:57:48;8.98;;;5.40;;
42912;SDS011;50720;54.324;18.558;2023-05-10T06:00:18;9.07;;;4.80;;
42912;SDS011;50720;54.324;18.558;2023-05-10T06:02:49;7.95;;;4.30;;
42912;SDS011;50720;54.324;18.558;2023-05-10T06:05:18;6.68;;;4.82;;
42912;SDS011;50720;54.324;18.558;2023-05-10T06:07:50;9.82;;;5.20;;
42912;SDS011;50720;54.324;18.558;2023-05-10T06:10:19;10.68;;;5.18;;
42912;SDS011;50720;54.324;18.558;2023-05-10T06:12:49;9.25;;;5.22;;
42912;SDS011;50720;54.324;18.558;2023-05-10T06:15:18;8.68;;;5.03;;
42912;SDS011;50720;54.324;18.558;2023-05-10T06:17:48;11.63;;;4.95;;
42912;SDS011;50720;54.324;18.558;2023-05-10T06:20:18;12.75;;;5.15;;
42912;SDS011;50720;54.324;18.558;2023-05-10T06:22:47;9.23;;;5.53;;
42912;SDS011;50720;54.324;18.558;2023-05-10T06:25:18;10.75;;;5.05;;
42912;SDS011;50720;54.324;18.558;2023-05-10T06:27:48;8.13;;;4.38;;
42912;SDS011;50720;54.324;18.558;2023-05-10T06:30:19;11.90;;;4.80;;
42912;SDS011;50720;54.324;18.558;2023-05-10T06:35:19;7.88;;;4.05;;
42912;SDS011;50720;54.324;18.558;2023-05-10T06:37:51;12.55;;;5.18;;
42912;SDS011;50720;54.324;18.558;2023-05-10T06:40:20;9.00;;;4.18;;
42912;SDS011;50720;54.324;18.558;2023-05-10T06:42:50;19.15;;;5.28;;
42912;SDS011;50720;54.324;18.558;2023-05-10T06:45:19;12.50;;;4.03;;
42912;SDS011;50720;54.324;18.558;2023-05-10T06:47:49;13.68;;;5.22;;
42912;SDS011;50720;54.324;18.558;2023-05-10T06:50:18;9.80;;;4.88;;
42912;SDS011;50720;54.324;18.558;2023-05-10T06:52:48;10.10;;;5.00;;
42912;SDS011;50720;54.324;18.558;2023-05-10T06:55:20;6.93;;;3.92;;
42912;SDS011;50720;54.324;18.558;2023-05-10T06:57:50;9.40;;;4.28;;
42912;SDS011;50720;54.324;18.558;2023-05-10T07:00:20;6.20;;;4.03;;
42912;SDS011;50720;54.324;18.558;2023-05-10T07:02:49;7.70;;;4.07;;
42912;SDS011;50720;54.324;18.558;2023-05-10T07:05:19;10.02;;;4.15;;
42912;SDS011;50720;54.324;18.558;2023-05-10T07:07:49;6.50;;;3.93;;
42912;SDS011;50720;54.324;18.558;2023-05-10T07:10:20;7.65;;;3.92;;
42912;SDS011;50720;54.324;18.558;2023-05-10T07:12:49;12.68;;;4.13;;
42912;SDS011;50720;54.324;18.558;2023-05-10T07:15:19;12.75;;;4.55;;
42912;SDS011;50720;54.324;18.558;2023-05-10T07:17:50;10.80;;;3.33;;
42912;SDS011;50720;54.324;18.558;2023-05-10T07:20:20;7.72;;;3.90;;
42912;SDS011;50720;54.324;18.558;2023-05-10T07:22:50;8.20;;;3.50;;
42912;SDS011;50720;54.324;18.558;2023-05-10T07:25:21;9.88;;;4.28;;
42912;SDS011;50720;54.324;18.558;2023-05-10T07:27:50;6.90;;;3.20;;
42912;SDS011;50720;54.324;18.558;2023-05-10T07:30:19;8.93;;;2.92;;
42912;SDS011;50720;54.324;18.558;2023-05-10T07:32:49;12.38;;;3.63;;
42912;SDS011;50720;54.324;18.558;2023-05-10T07:35:19;4.47;;;2.53;;
42912;SDS011;50720;54.324;18.558;2023-05-10T07:37:49;6.38;;;2.80;;
42912;SDS011;50720;54.324;18.558;2023-05-10T07:40:18;6.22;;;3.03;;
42912;SDS011;50720;54.324;18.558;2023-05-10T07:42:50;9.02;;;3.55;;
42912;SDS011;50720;54.324;18.558;2023-05-10T07:45:19;10.48;;;3.25;;
42912;SDS011;50720;54.324;18.558;2023-05-10T07:47:49;8.88;;;2.92;;
42912;SDS011;50720;54.324;18.558;2023-05-10T07:50:18;6.60;;;3.42;;
42912;SDS011;50720;54.324;18.558;2023-05-10T07:52:48;8.20;;;2.80;;
42912;SDS011;50720;54.324;18.558;2023-05-10T07:55:18;5.30;;;2.97;;
42912;SDS011;50720;54.324;18.558;2023-05-10T07:57:49;10.77;;;2.97;;
42912;SDS011;50720;54.324;18.558;2023-05-10T08:00:19;9.15;;;2.25;;
42912;SDS011;50720;54.324;18.558;2023-05-10T08:02:49;8.65;;;2.65;;
42912;SDS011;50720;54.324;18.558;2023-05-10T08:05:18;6.35;;;2.83;;
42912;SDS011;50720;54.324;18.558;2023-05-10T08:07:48;5.35;;;2.35;;
42912;SDS011;50720;54.324;18.558;2023-05-10T08:10:17;10.48;;;2.83;;
42912;SDS011;50720;54.324;18.558;2023-05-10T08:12:48;7.28;;;2.97;;
42912;SDS011;50720;54.324;18.558;2023-05-10T08:15:17;5.18;;;2.67;;
42912;SDS011;50720;54.324;18.558;2023-05-10T08:17:47;9.07;;;2.97;;
42912;SDS011;50720;54.324;18.558;2023-05-10T08:20:17;14.50;;;3.65;;
42912;SDS011;50720;54.324;18.558;2023-05-10T08:25:17;10.90;;;3.10;;
42912;SDS011;50720;54.324;18.558;2023-05-10T08:27:49;9.03;;;2.73;;
42912;SDS011;50720;54.324;18.558;2023-05-10T08:32:48;15.60;;;2.47;;
42912;SDS011;50720;54.324;18.558;2023-05-10T08:35:17;15.35;;;2.58;;
42912;SDS011;50720;54.324;18.558;2023-05-10T08:37:47;6.35;;;2.72;;
42912;SDS011;50720;54.324;18.558;2023-05-10T08:40:16;11.93;;;2.60;;
42912;SDS011;50720;54.324;18.558;2023-05-10T08:42:51;9.15;;;3.25;;
42912;SDS011;50720;54.324;18.558;2023-05-10T08:45:24;7.57;;;3.03;;
42912;SDS011;50720;54.324;18.558;2023-05-10T08:47:56;5.88;;;2.08;;
42912;SDS011;50720;54.324;18.558;2023-05-10T08:50:27;11.43;;;2.83;;
42912;SDS011;50720;54.324;18.558;2023-05-10T08:53:04;5.35;;;2.15;;
42912;SDS011;50720;54.324;18.558;2023-05-10T08:55:37;9.85;;;2.17;;
42912;SDS011;50720;54.324;18.558;2023-05-10T08:58:10;12.95;;;2.60;;
42912;SDS011;50720;54.324;18.558;2023-05-10T09:00:40;14.88;;;2.60;;
42912;SDS011;50720;54.324;18.558;2023-05-10T09:03:10;4.35;;;2.00;;
42912;SDS011;50720;54.324;18.558;2023-05-10T09:05:40;8.80;;;2.20;;
42912;SDS011;50720;54.324;18.558;2023-05-10T09:08:12;9.25;;;1.92;;
42912;SDS011;50720;54.324;18.558;2023-05-10T09:10:43;8.93;;;2.20;;
42912;SDS011;50720;54.324;18.558;2023-05-10T09:13:16;10.02;;;2.47;;
42912;SDS011;50720;54.324;18.558;2023-05-10T09:15:46;13.52;;;2.10;;
42912;SDS011;50720;54.324;18.558;2023-05-10T09:18:16;5.18;;;2.25;;
42912;SDS011;50720;54.324;18.558;2023-05-10T09:20:46;7.15;;;2.38;;
42912;SDS011;50720;54.324;18.558;2023-05-10T09:25:45;5.22;;;2.03;;
42912;SDS011;50720;54.324;18.558;2023-05-10T09:28:17;16.30;;;3.57;;
42912;SDS011;50720;54.324;18.558;2023-05-10T09:33:23;20.27;;;2.75;;
42912;SDS011;50720;54.324;18.558;2023-05-10T09:38:23;3.30;;;2.22;;
42912;SDS011;50720;54.324;18.558;2023-05-10T09:40:52;10.02;;;3.05;;
42912;SDS011;50720;54.324;18.558;2023-05-10T09:43:25;12.15;;;3.67;;
42912;SDS011;50720;54.324;18.558;2023-05-10T09:48:24;3.25;;;1.95;;
42912;SDS011;50720;54.324;18.558;2023-05-10T09:50:56;10.55;;;2.25;;
42912;SDS011;50720;54.324;18.558;2023-05-10T09:53:26;5.65;;;2.33;;
42912;SDS011;50720;54.324;18.558;2023-05-10T09:55:55;12.25;;;2.47;;
42912;SDS011;50720;54.324;18.558;2023-05-10T09:58:26;9.50;;;2.47;;
42912;SDS011;50720;54.324;18.558;2023-05-10T10:03:24;14.48;;;2.72;;
42912;SDS011;50720;54.324;18.558;2023-05-10T10:05:56;4.68;;;1.98;;
42912;SDS011;50720;54.324;18.558;2023-05-10T10:08:26;11.32;;;2.30;;
42912;SDS011;50720;54.324;18.558;2023-05-10T10:10:56;8.05;;;2.15;;
42912;SDS011;50720;54.324;18.558;2023-05-10T10:13:27;5.72;;;2.58;;
42912;SDS011;50720;54.324;18.558;2023-05-10T10:15:56;3.03;;;2.33;;
42912;SDS011;50720;54.324;18.558;2023-05-10T10:18:26;9.05;;;1.98;;
42912;SDS011;50720;54.324;18.558;2023-05-10T10:20:56;5.85;;;2.17;;
42912;SDS011;50720;54.324;18.558;2023-05-10T10:23:27;11.82;;;2.05;;
42912;SDS011;50720;54.324;18.558;2023-05-10T10:25:56;4.40;;;2.10;;
42912;SDS011;50720;54.324;18.558;2023-05-10T10:28:32;3.83;;;2.72;;
42912;SDS011;50720;54.324;18.558;2023-05-10T10:31:15;5.40;;;2.55;;
42912;SDS011;50720;54.324;18.558;2023-05-10T10:33:56;6.20;;;2.40;;
42912;SDS011;50720;54.324;18.558;2023-05-10T10:36:30;4.05;;;2.20;;
42912;SDS011;50720;54.324;18.558;2023-05-10T10:39:01;8.02;;;2.30;;
42912;SDS011;50720;54.324;18.558;2023-05-10T10:41:37;5.78;;;2.40;;
42912;SDS011;50720;54.324;18.558;2023-05-10T10:44:26;10.80;;;2.40;;
42912;SDS011;50720;54.324;18.558;2023-05-10T10:47:07;7.75;;;2.83;;
42912;SDS011;50720;54.324;18.558;2023-05-10T10:49:54;9.23;;;2.65;;
42912;SDS011;50720;54.324;18.558;2023-05-10T10:52:32;9.77;;;3.47;;
42912;SDS011;50720;54.324;18.558;2023-05-10T10:55:03;11.38;;;2.10;;
42912;SDS011;50720;54.324;18.558;2023-05-10T10:57:47;5.10;;;2.83;;
42912;SDS011;50720;54.324;18.558;2023-05-10T11:00:32;4.93;;;1.77;;
42912;SDS011;50720;54.324;18.558;2023-05-10T11:03:04;7.38;;;2.30;;
42912;SDS011;50720;54.324;18.558;2023-05-10T11:05:36;5.63;;;2.05;;
42912;SDS011;50720;54.324;18.558;2023-05-10T11:08:10;5.60;;;2.05;;
42912;SDS011;50720;54.324;18.558;2023-05-10T11:11:04;5.63;;;2.47;;
42912;SDS011;50720;54.324;18.558;2023-05-10T11:13:38;10.85;;;2.30;;
42912;SDS011;50720;54.324;18.558;2023-05-10T11:16:12;4.22;;;2.22;;
42912;SDS011;50720;54.324;18.558;2023-05-10T11:18:59;6.43;;;2.13;;
42912;SDS011;50720;54.324;18.558;2023-05-10T11:21:31;8.75;;;2.50;;
42912;SDS011;50720;54.324;18.558;2023-05-10T11:24:02;8.00;;;2.35;;
42912;SDS011;50720;54.324;18.558;2023-05-10T11:26:41;6.28;;;2.35;;
42912;SDS011;50720;54.324;18.558;2023-05-10T11:29:12;8.10;;;3.22;;
42912;SDS011;50720;54.324;18.558;2023-05-10T11:31:44;7.55;;;2.10;;
42912;SDS011;50720;54.324;18.558;2023-05-10T11:34:22;5.63;;;2.40;;
42912;SDS011;50720;54.324;18.558;2023-05-10T11:36:54;13.13;;;2.83;;
42912;SDS011;50720;54.324;18.558;2023-05-10T11:44:24;11.27;;;2.92;;
42912;SDS011;50720;54.324;18.558;2023-05-10T11:47:00;8.93;;;2.53;;
42912;SDS011;50720;54.324;18.558;2023-05-10T11:49:30;9.43;;;2.50;;
42912;SDS011;50720;54.324;18.558;2023-05-10T11:52:03;8.38;;;2.58;;
42912;SDS011;50720;54.324;18.558;2023-05-10T11:54:34;12.82;;;2.53;;
42912;SDS011;50720;54.324;18.558;2023-05-10T11:57:04;6.07;;;2.17;;
42912;SDS011;50720;54.324;18.558;2023-05-10T11:59:33;9.85;;;2.75;;
42912;SDS011;50720;54.324;18.558;2023-05-10T12:02:04;11.27;;;2.45;;
42912;SDS011;50720;54.324;18.558;2023-05-10T12:04:34;10.65;;;3.15;;
42912;SDS011;50720;54.324;18.558;2023-05-10T12:07:04;8.50;;;2.22;;
42912;SDS011;50720;54.324;18.558;2023-05-10T12:09:34;6.40;;;2.40;;
42912;SDS011;50720;54.324;18.558;2023-05-10T12:12:10;13.18;;;2.40;;
42912;SDS011;50720;54.324;18.558;2023-05-10T12:14:44;10.13;;;2.25;;
42912;SDS011;50720;54.324;18.558;2023-05-10T12:17:20;10.57;;;2.47;;
42912;SDS011;50720;54.324;18.558;2023-05-10T12:19:50;12.35;;;2.10;;
42912;SDS011;50720;54.324;18.558;2023-05-10T12:22:20;7.43;;;2.50;;
42912;SDS011;50720;54.324;18.558;2023-05-10T12:24:50;6.10;;;2.17;;
42912;SDS011;50720;54.324;18.558;2023-05-10T12:27:19;8.65;;;2.47;;
42912;SDS011;50720;54.324;18.558;2023-05-10T12:29:48;14.60;;;2.20;;
42912;SDS011;50720;54.324;18.558;2023-05-10T12:34:51;6.93;;;2.42;;
42912;SDS011;50720;54.324;18.558;2023-05-10T12:37:23;8.77;;;2.20;;
42912;SDS011;50720;54.324;18.558;2023-05-10T12:39:56;10.48;;;2.38;;
42912;SDS011;50720;54.324;18.558;2023-05-10T12:42:26;10.10;;;2.90;;
42912;SDS011;50720;54.324;18.558;2023-05-10T12:44:55;10.70;;;2.50;;
42912;SDS011;50720;54.324;18.558;2023-05-10T12:47:27;9.10;;;1.88;;
42912;SDS011;50720;54.324;18.558;2023-05-10T12:49:56;10.20;;;2.42;;
42912;SDS011;50720;54.324;18.558;2023-05-10T12:52:26;6.45;;;1.95;;
42912;SDS011;50720;54.324;18.558;2023-05-10T12:54:55;8.60;;;2.30;;
42912;SDS011;50720;54.324;18.558;2023-05-10T12:57:25;16.05;;;2.40;;
42912;SDS011;50720;54.324;18.558;2023-05-10T12:59:55;12.83;;;3.63;;
42912;SDS011;50720;54.324;18.558;2023-05-10T13:07:25;10.48;;;2.20;;
42912;SDS011;50720;54.324;18.558;2023-05-10T13:09:55;8.77;;;2.60;;
42912;SDS011;50720;54.324;18.558;2023-05-10T13:12:25;10.93;;;2.33;;
42912;SDS011;50720;54.324;18.558;2023-05-10T13:14:54;18.08;;;3.25;;
42912;SDS011;50720;54.324;18.558;2023-05-10T13:17:25;11.15;;;3.45;;
42912;SDS011;50720;54.324;18.558;2023-05-10T13:19:58;12.93;;;2.70;;
42912;SDS011;50720;54.324;18.558;2023-05-10T13:22:27;9.18;;;2.03;;
42912;SDS011;50720;54.324;18.558;2023-05-10T13:25:06;9.82;;;2.50;;
42912;SDS011;50720;54.324;18.558;2023-05-10T13:27:37;11.43;;;2.50;;
42912;SDS011;50720;54.324;18.558;2023-05-10T13:30:06;8.90;;;2.28;;
42912;SDS011;50720;54.324;18.558;2023-05-10T13:32:40;6.82;;;2.30;;
42912;SDS011;50720;54.324;18.558;2023-05-10T13:35:09;10.82;;;3.17;;
42912;SDS011;50720;54.324;18.558;2023-05-10T13:37:39;6.75;;;2.47;;
42912;SDS011;50720;54.324;18.558;2023-05-10T13:40:08;6.70;;;2.00;;
42912;SDS011;50720;54.324;18.558;2023-05-10T13:42:38;12.77;;;3.47;;
42912;SDS011;50720;54.324;18.558;2023-05-10T13:45:08;9.27;;;2.50;;
42912;SDS011;50720;54.324;18.558;2023-05-10T13:47:41;5.95;;;2.35;;
42912;SDS011;50720;54.324;18.558;2023-05-10T13:50:10;11.93;;;2.33;;
42912;SDS011;50720;54.324;18.558;2023-05-10T13:52:40;7.05;;;1.70;;
42912;SDS011;50720;54.324;18.558;2023-05-10T13:55:10;8.80;;;2.17;;
42912;SDS011;50720;54.324;18.558;2023-05-10T13:58:29;6.05;;;2.88;;
42912;SDS011;50720;54.324;18.558;2023-05-10T14:00:59;9.40;;;2.10;;
42912;SDS011;50720;54.324;18.558;2023-05-10T14:03:30;10.00;;;2.33;;
42912;SDS011;50720;54.324;18.558;2023-05-10T14:06:00;13.13;;;2.50;;
42912;SDS011;50720;54.324;18.558;2023-05-10T14:08:29;15.10;;;2.40;;
42912;SDS011;50720;54.324;18.558;2023-05-10T14:11:00;10.10;;;1.83;;
42912;SDS011;50720;54.324;18.558;2023-05-10T14:13:29;8.02;;;2.35;;
42912;SDS011;50720;54.324;18.558;2023-05-10T14:15:59;3.47;;;1.85;;
42912;SDS011;50720;54.324;18.558;2023-05-10T14:18:30;6.68;;;2.35;;
42912;SDS011;50720;54.324;18.558;2023-05-10T14:21:01;10.50;;;1.52;;
42912;SDS011;50720;54.324;18.558;2023-05-10T14:23:31;7.25;;;2.10;;
42912;SDS011;50720;54.324;18.558;2023-05-10T14:26:01;5.72;;;2.05;;
42912;SDS011;50720;54.324;18.558;2023-05-10T14:28:31;5.27;;;1.93;;
42912;SDS011;50720;54.324;18.558;2023-05-10T14:31:01;9.45;;;2.30;;
42912;SDS011;50720;54.324;18.558;2023-05-10T14:33:32;9.00;;;2.47;;
42912;SDS011;50720;54.324;18.558;2023-05-10T14:36:02;9.30;;;2.33;;
42912;SDS011;50720;54.324;18.558;2023-05-10T14:38:31;7.43;;;1.70;;
42912;SDS011;50720;54.324;18.558;2023-05-10T14:41:01;10.57;;;2.38;;
42912;SDS011;50720;54.324;18.558;2023-05-10T14:43:30;10.55;;;2.03;;
42912;SDS011;50720;54.324;18.558;2023-05-10T14:46:00;3.72;;;2.30;;
42912;SDS011;50720;54.324;18.558;2023-05-10T14:48:30;4.57;;;1.75;;
42912;SDS011;50720;54.324;18.558;2023-05-10T14:51:01;6.97;;;1.90;;
42912;SDS011;50720;54.324;18.558;2023-05-10T14:53:45;12.07;;;2.37;;
42912;SDS011;50720;54.324;18.558;2023-05-10T14:56:15;5.85;;;2.03;;
42912;SDS011;50720;54.324;18.558;2023-05-10T14:58:45;9.75;;;1.92;;
42912;SDS011;50720;54.324;18.558;2023-05-10T15:01:15;6.40;;;2.60;;
42912;SDS011;50720;54.324;18.558;2023-05-10T15:03:48;8.25;;;2.63;;
42912;SDS011;50720;54.324;18.558;2023-05-10T15:06:22;5.18;;;2.00;;
42912;SDS011;50720;54.324;18.558;2023-05-10T15:08:53;10.23;;;2.10;;
42912;SDS011;50720;54.324;18.558;2023-05-10T15:11:23;3.33;;;1.58;;
42912;SDS011;50720;54.324;18.558;2023-05-10T15:13:52;14.02;;;2.97;;
42912;SDS011;50720;54.324;18.558;2023-05-10T15:16:22;7.80;;;2.08;;
42912;SDS011;50720;54.324;18.558;2023-05-10T15:18:53;6.78;;;2.00;;
42912;SDS011;50720;54.324;18.558;2023-05-10T15:21:23;9.30;;;1.83;;
42912;SDS011;50720;54.324;18.558;2023-05-10T15:23:52;14.88;;;2.03;;
42912;SDS011;50720;54.324;18.558;2023-05-10T15:26:22;12.18;;;1.58;;
42912;SDS011;50720;54.324;18.558;2023-05-10T15:31:22;8.50;;;3.15;;
42912;SDS011;50720;54.324;18.558;2023-05-10T15:33:55;10.15;;;2.20;;
42912;SDS011;50720;54.324;18.558;2023-05-10T15:36:26;4.65;;;1.77;;
42912;SDS011;50720;54.324;18.558;2023-05-10T15:38:56;2.42;;;1.70;;
42912;SDS011;50720;54.324;18.558;2023-05-10T15:41:25;9.03;;;1.70;;
42912;SDS011;50720;54.324;18.558;2023-05-10T15:43:55;15.43;;;2.27;;
42912;SDS011;50720;54.324;18.558;2023-05-10T15:46:24;5.03;;;1.88;;
42912;SDS011;50720;54.324;18.558;2023-05-10T15:48:56;7.67;;;2.23;;